»·PEaware :: N416JK KLAS-KPRC

N416JK :: KLAS-KPRC

FLIGHT INFORMATION

Flight Status: Arrived
Operator: Privately registered:
United States
More flights under this callsign
Pilot: John K. (4202)
Aircraft: PIPER PA-46-310/350P MALIBU MIRAGE
(PA46)
More flights by this aircraft type
Origin: KLAS McCarran Intl
United States
Destination: KPRC Love
United States
More flights between these airports :: More routes between these airports
Route: +V562 PGS DRK
File this flight plan on PilotEdge
Remarks:
Altitude:
(Current/Filed)
11,000ft
Speed:
(Current/Filed)
170kts
Departed: 21-Jul-18 08:54 AM
Arrived: 21-Jul-18 09:53 AM
Distance/Time
Traveled:
159nm/0:59
Distance/Time
To Go:
Arrived

Flight Plot

Page will automatically refresh every two minutes.

Flight plan parsing failed; only flown route is shown


Map Options




Map Legend


Flown Route
Filed Route
Departure Airport
Arrival Airport
Navaid (VOR, NDB)
Fix

Horizontal Profiles

Position Reports

Time Latitude Longitude Heading Altitude Ground
Speed
21-Jul-18 08:40 36.080721 -115.171085 269 2145ft 0kts
21-Jul-18 08:41 36.080721 -115.171085 269 2145ft 0kts
21-Jul-18 08:42 36.080721 -115.171085 269 2145ft 0kts
21-Jul-18 08:43 36.080721 -115.171085 269 2145ft 0kts
21-Jul-18 08:44 36.080721 -115.171085 269 2145ft 0kts
21-Jul-18 08:45 36.080721 -115.171085 269 2145ft 0kts
21-Jul-18 08:46 36.080721 -115.171085 269 2145ft 0kts
21-Jul-18 08:47 36.080721 -115.171085 269 2145ft 0kts
21-Jul-18 08:48 36.080832 -115.171061 79 2145ft 0kts
21-Jul-18 08:49 36.080832 -115.171061 79 2145ft 0kts
21-Jul-18 08:50 36.081393 -115.169727 63 2145ft 19kts
21-Jul-18 08:51 36.084247 -115.166755 25 2145ft 34kts
21-Jul-18 08:52 36.093346 -115.161534 20 2145ft 36kts
21-Jul-18 08:53 36.099838 -115.157600 86 2145ft 5kts
21-Jul-18 08:54 36.099839 -115.157581 86 2145ft 0kts
21-Jul-18 08:55 36.098533 -115.157095 205 2145ft 42kts
21-Jul-18 08:56 36.070575 -115.167588 188 2903ft 135kts
21-Jul-18 08:57 36.030954 -115.172849 188 3919ft 155kts
21-Jul-18 08:58 35.990243 -115.178929 188 5085ft 148kts
21-Jul-18 08:59 35.950021 -115.185679 188 6282ft 144kts
21-Jul-18 09:00 35.922612 -115.162954 105 7484ft 157kts
21-Jul-18 09:01 35.899660 -115.136407 204 8681ft 141kts
21-Jul-18 09:02 35.872585 -115.109402 129 9941ft 149kts
21-Jul-18 09:03 35.865482 -115.054431 98 10792ft 178kts
21-Jul-18 09:04 35.857936 -114.990030 102 11020ft 210kts
21-Jul-18 09:05 35.847139 -114.918397 102 11009ft 217kts
21-Jul-18 09:06 35.836262 -114.847339 102 11008ft 215kts
21-Jul-18 09:07 35.824993 -114.775159 103 11008ft 214kts
21-Jul-18 09:08 35.813769 -114.704133 103 11008ft 214kts
21-Jul-18 09:09 35.802450 -114.632884 103 11008ft 214kts
21-Jul-18 09:10 35.790958 -114.560821 103 11008ft 214kts
21-Jul-18 09:11 35.779624 -114.490022 103 11008ft 214kts
21-Jul-18 09:12 35.756734 -114.424701 125 10945ft 212kts
21-Jul-18 09:13 35.725051 -114.365194 125 10968ft 210kts
21-Jul-18 09:14 35.694340 -114.307069 125 11001ft 209kts
21-Jul-18 09:15 35.663406 -114.248840 125 11036ft 208kts
21-Jul-18 09:16 35.632411 -114.190483 125 11045ft 208kts
21-Jul-18 09:17 35.609219 -114.147593 121 10985ft 212kts
21-Jul-18 09:18 35.581932 -114.095415 125 10898ft 210kts
21-Jul-18 09:19 35.558366 -114.051557 123 10936ft 206kts
21-Jul-18 09:20 35.528141 -113.994730 125 10899ft 207kts
21-Jul-18 09:21 35.496555 -113.935712 125 10899ft 207kts
21-Jul-18 09:22 35.465732 -113.878005 125 10898ft 207kts
21-Jul-18 09:23 35.434963 -113.820271 125 10899ft 206kts
21-Jul-18 09:24 35.403321 -113.761332 125 10899ft 207kts
21-Jul-18 09:25 35.372190 -113.703501 125 10899ft 207kts
21-Jul-18 09:26 35.341001 -113.645661 125 10899ft 207kts
21-Jul-18 09:27 35.309774 -113.587860 125 10899ft 207kts
21-Jul-18 09:28 35.278032 -113.529201 125 10899ft 207kts
21-Jul-18 09:29 35.246770 -113.471533 125 10899ft 207kts
21-Jul-18 09:30 35.215468 -113.413873 125 10899ft 207kts
21-Jul-18 09:31 35.183733 -113.355395 126 10899ft 207kts
21-Jul-18 09:32 35.152282 -113.297757 125 10899ft 207kts
21-Jul-18 09:33 35.120971 -113.240352 125 10938ft 205kts
21-Jul-18 09:34 35.089847 -113.183390 126 11010ft 204kts
21-Jul-18 09:35 35.058296 -113.125759 126 11083ft 204kts
21-Jul-18 09:36 35.027188 -113.068999 126 11154ft 204kts
21-Jul-18 09:37 34.996157 -113.012526 126 11201ft 204kts
21-Jul-18 09:38 34.965045 -112.956062 125 11201ft 202kts
21-Jul-18 09:39 34.933754 -112.899117 124 11061ft 210kts
21-Jul-18 09:40 34.901452 -112.839554 123 10075ft 216kts
21-Jul-18 09:41 34.868566 -112.779940 123 9126ft 214kts
21-Jul-18 09:42 34.837330 -112.723473 123 8986ft 188kts
21-Jul-18 09:43 34.809359 -112.673010 123 8381ft 182kts
21-Jul-18 09:44 34.782086 -112.623785 124 7371ft 170kts
21-Jul-18 09:45 34.757658 -112.579820 124 6816ft 152kts
21-Jul-18 09:46 34.734690 -112.538546 124 6344ft 142kts
21-Jul-18 09:47 34.714031 -112.501426 125 6191ft 130kts
21-Jul-18 09:48 34.692621 -112.466587 115 6197ft 130kts
21-Jul-18 09:49 34.710536 -112.436858 43 5854ft 116kts
21-Jul-18 09:50 34.726906 -112.411788 115 5590ft 87kts
21-Jul-18 09:51 34.715602 -112.385253 132 5519ft 96kts
21-Jul-18 09:52 34.692115 -112.391230 199 5792ft 101kts
21-Jul-18 09:53 34.668257 -112.405165 214 5260ft 93kts
21-Jul-18 09:54 34.656989 -112.416088 131 5045ft 0kts
21-Jul-18 09:55 34.654762 -112.417428 219 5045ft 41kts
21-Jul-18 09:56 34.647016 -112.424639 137 5045ft 13kts

Navigation Log

Ident Type
Flight plan parsing failed, navigation log unavailable